Senin
| Ora | Descriere | Temp | Se simte | Precipitatii | Umiditate | Vant |
|---|---|---|---|---|---|---|
| 00:00 | Senin | 12.3° | 12.4° | 0% | 72% | NE 5 KM/H |
| 01:00 | Senin | 12° | 11.8° | 0% | 75% | NE 5.8 KM/H |
| 02:00 | Senin | 11.7° | 11.4° | 0% | 78% | NE 6.1 KM/H |
| 03:00 | Senin | 11.4° | 10.8° | 0% | 80% | NNE 7.2 KM/H |
| 04:00 | Senin | 11° | 10.5° | 0% | 80% | NE 6.8 KM/H |
| 05:00 | Senin | 9° | 10.5° | 0% | 81% | NE 5.4 KM/H |
| 06:00 | Senin | 10.5° | 10.5° | 0% | 78% | NNE 4.3 KM/H |
| 07:00 | Senin | 11.3° | 11.3° | 0% | 75% | N 4.7 KM/H |
| 08:00 | Senin | 13.9° | 14.6° | 0% | 67% | N 3.6 KM/H |
| 09:00 | Senin | 16.3° | 16.3° | 0% | 60% | N 1.8 KM/H |
| 10:00 | Senin | 18.4° | 18.4° | 0% | 55% | SSE 4.7 KM/H |
| 11:00 | Senin | 19.9° | 19.9° | 0% | 52% | SSE 7.2 KM/H |
| 12:00 | Senin | 21.1° | 21.1° | 0% | 49% | S 8.6 KM/H |
| 13:00 | Senin | 22° | 24.3° | 0% | 47% | SSW 9.4 KM/H |
| 14:00 | Senin | 22.7° | 24.4° | 0% | 44% | SSW 10.8 KM/H |
| 15:00 | Senin | 23° | 24.4° | 0% | 42% | SW 12.2 KM/H |
| 16:00 | Senin | 23° | 24.3° | 0% | 40% | SW 13 KM/H |
| 17:00 | Senin | 22.9° | 24.3° | 0% | 40% | SW 12.6 KM/H |
| 18:00 | Senin | 22.4° | 24.4° | 0% | 45% | SW 11.5 KM/H |
| 19:00 | Senin | 20.9° | 20.9° | 0% | 55% | SSW 8.6 KM/H |
| 20:00 | Senin | 18.2° | 18.2° | 0% | 61% | SSW 7.9 KM/H |
| 21:00 | Patchy light rain in area with thunder | 16° | 16.1° | 100% | 62% | SSW 5.4 KM/H |
| 22:00 | Senin | 15.1° | 15.1° | 0% | 63% | S 4 KM/H |
| 23:00 | Senin | 14.4° | 15.1° | 0% | 64% | SSW 4 KM/H |